createdAt,value
2023-03-19T00:04:41.443Z,60.08
2023-03-19T00:07:12.490Z,66.53
2023-03-19T00:09:43.632Z,62.25
2023-03-19T00:12:14.824Z,65.78
2023-03-19T00:17:53.295Z,56.92
2023-03-19T00:28:52.869Z,63.38
2023-03-19T00:31:24.008Z,61.80
2023-03-19T00:33:55.022Z,62.88
2023-03-19T00:36:27.008Z,67.35
2023-03-19T00:38:58.735Z,66.85
2023-03-19T00:41:30.128Z,65.00
2023-03-19T00:44:01.440Z,64.07
2023-03-19T00:52:17.949Z,60.80
2023-03-19T00:54:48.931Z,64.67
2023-03-19T00:57:19.927Z,65.90
2023-03-19T00:59:50.821Z,66.28
2023-03-19T01:02:21.722Z,63.73
2023-03-19T01:04:52.893Z,67.47
2023-03-19T01:07:27.782Z,67.10
2023-03-19T01:09:58.706Z,64.32
2023-03-19T01:12:29.721Z,66.80
2023-03-19T01:26:52.837Z,64.12
2023-03-19T01:49:42.230Z,73.10
2023-03-19T02:04:04.436Z,64.53
2023-03-19T02:15:21.513Z,62.27
2023-03-19T02:24:08.399Z,67.37
2023-03-19T02:26:48.169Z,59.70
2023-03-19T02:29:21.846Z,68.52
2023-03-19T02:31:59.713Z,64.58
2023-03-19T02:37:42.712Z,68.90
2023-03-19T02:40:36.762Z,63.08
2023-03-19T02:55:01.458Z,71.05
2023-03-19T03:22:49.370Z,66.80
2023-03-19T03:25:30.393Z,71.12
2023-03-19T03:34:01.550Z,67.90
2023-03-19T03:36:32.110Z,61.55
2023-03-19T03:39:03.055Z,60.98
2023-03-19T03:41:34.246Z,61.08
2023-03-19T03:44:05.197Z,60.25
2023-03-19T03:46:36.778Z,59.65
2023-03-19T03:49:17.257Z,53.55
2023-03-19T03:51:48.170Z,62.17
2023-03-19T03:54:19.097Z,56.05
2023-03-19T03:56:51.760Z,54.00
2023-03-19T03:59:23.041Z,55.73
2023-03-19T04:01:54.053Z,58.73
2023-03-19T04:04:25.078Z,54.08
2023-03-19T04:06:55.973Z,59.65
2023-03-19T04:09:27.587Z,57.10
2023-03-19T04:11:58.470Z,50.67
2023-03-19T04:14:29.575Z,58.08
2023-03-19T04:17:00.497Z,57.93
2023-03-19T04:19:31.389Z,52.40
2023-03-19T04:22:03.907Z,74.25
2023-03-19T04:24:34.838Z,92.15
2023-03-19T04:27:05.784Z,60.80
2023-03-19T04:29:36.922Z,67.12
2023-03-19T04:32:08.296Z,57.55
2023-03-19T04:34:39.219Z,62.73
2023-03-19T04:37:11.557Z,65.55
2023-03-19T04:39:42.534Z,56.13
2023-03-19T04:42:13.621Z,51.90
2023-03-19T04:44:44.555Z,58.17
2023-03-19T04:47:16.057Z,50.83
2023-03-19T04:49:46.997Z,56.10
2023-03-19T04:52:17.930Z,57.53
2023-03-19T04:54:49.110Z,59.98
2023-03-19T04:57:20.018Z,54.48
2023-03-19T04:59:50.956Z,56.02
2023-03-19T05:02:22.032Z,55.28
2023-03-19T05:04:54.678Z,63.05
2023-03-19T05:07:25.381Z,45.90
2023-03-19T05:10:01.774Z,55.03
2023-03-19T05:15:02.791Z,47.60
2023-03-19T05:17:36.573Z,44.85
2023-03-19T05:20:09.799Z,42.78
2023-03-19T05:22:40.872Z,44.55
2023-03-19T05:25:12.162Z,45.15
2023-03-19T05:27:43.270Z,44.30
2023-03-19T05:30:23.709Z,53.90
2023-03-19T05:32:54.889Z,40.45
2023-03-19T05:35:25.846Z,41.92
2023-03-19T05:37:57.259Z,42.08
2023-03-19T05:40:32.589Z,48.28
2023-03-19T05:43:03.753Z,56.90
2023-03-19T05:45:34.707Z,50.83
2023-03-19T05:48:09.176Z,56.23
2023-03-19T05:50:39.698Z,51.85
2023-03-19T05:53:10.639Z,54.48
2023-03-19T05:55:41.855Z,43.65
2023-03-19T05:58:12.809Z,48.00
2023-03-19T06:00:43.903Z,49.13
2023-03-19T06:03:14.867Z,42.48
2023-03-19T06:05:46.442Z,41.20
2023-03-19T06:08:20.766Z,45.33
2023-03-19T06:10:51.889Z,42.48
2023-03-19T06:13:22.842Z,38.70
2023-03-19T06:15:53.781Z,39.63
2023-03-19T06:18:24.801Z,40.20
2023-03-19T06:20:55.890Z,104.67
2023-03-19T06:23:28.174Z,40.38
2023-03-19T06:25:59.094Z,40.17
2023-03-19T06:28:30.016Z,44.88
2023-03-19T06:31:01.700Z,37.83
2023-03-19T06:33:36.497Z,45.78
2023-03-19T06:36:09.598Z,35.33
2023-03-19T06:38:40.881Z,35.52
2023-03-19T06:41:12.093Z,40.48
2023-03-19T06:43:44.109Z,33.58
2023-03-19T06:46:15.151Z,39.95
2023-03-19T06:48:46.095Z,33.42
2023-03-19T06:51:17.031Z,42.73
2023-03-19T06:53:48.678Z,35.90
2023-03-19T06:56:19.661Z,34.27
2023-03-19T06:58:52.508Z,34.25
2023-03-19T07:01:24.235Z,33.55
2023-03-19T07:03:56.230Z,34.38
2023-03-19T07:06:28.456Z,34.18
2023-03-19T07:08:59.479Z,37.60
2023-03-19T07:11:36.562Z,41.28
2023-03-19T07:14:09.539Z,40.20
2023-03-19T07:16:40.471Z,35.30
2023-03-19T07:19:11.397Z,35.63
2023-03-19T07:21:42.794Z,45.08
2023-03-19T07:24:13.697Z,39.30
2023-03-19T07:26:45.101Z,39.70
2023-03-19T07:29:16.131Z,32.17
2023-03-19T07:31:47.162Z,40.50
2023-03-19T07:34:19.290Z,37.95
2023-03-19T07:36:50.412Z,39.03
2023-03-19T07:39:21.716Z,33.67
2023-03-19T07:41:53.234Z,32.45
2023-03-19T07:44:24.590Z,31.77
2023-03-19T07:46:55.828Z,33.25
2023-03-19T07:49:26.778Z,33.67
2023-03-19T07:51:57.805Z,39.33
2023-03-19T07:54:28.839Z,39.45
2023-03-19T07:56:59.739Z,34.55
2023-03-19T07:59:30.733Z,43.50
2023-03-19T08:02:01.676Z,36.17
2023-03-19T08:04:32.864Z,36.58
2023-03-19T08:07:06.362Z,54.50
2023-03-19T08:09:38.492Z,36.40
2023-03-19T08:12:10.560Z,36.80
2023-03-19T08:14:41.565Z,40.50
2023-03-19T08:17:12.627Z,43.20
2023-03-19T08:19:43.675Z,45.15
2023-03-19T08:22:14.658Z,43.13
2023-03-19T08:24:45.569Z,48.70
2023-03-19T08:27:16.468Z,45.73
2023-03-19T08:29:47.417Z,44.08
2023-03-19T08:32:22.141Z,39.23
2023-03-19T08:34:55.855Z,41.33
2023-03-19T08:37:28.237Z,44.27
2023-03-19T08:39:59.217Z,41.95
2023-03-19T08:42:30.267Z,37.75
2023-03-19T08:45:01.166Z,37.58
2023-03-19T08:47:32.285Z,40.80
2023-03-19T08:50:03.195Z,41.63
2023-03-19T08:52:34.404Z,37.93
2023-03-19T08:55:05.321Z,38.92
2023-03-19T08:57:36.599Z,42.15
2023-03-19T09:00:08.981Z,39.73
2023-03-19T09:02:39.920Z,42.05
2023-03-19T09:05:12.430Z,40.88
2023-03-19T09:07:45.726Z,41.45
2023-03-19T09:10:22.453Z,44.60
2023-03-19T09:15:23.273Z,39.65
2023-03-19T09:17:54.418Z,38.70
2023-03-19T09:20:25.513Z,43.33
2023-03-19T09:22:56.539Z,36.15
2023-03-19T09:25:27.428Z,36.60
2023-03-19T09:27:58.329Z,42.75
2023-03-19T09:30:30.450Z,44.60
2023-03-19T09:33:01.660Z,60.23
2023-03-19T09:35:34.612Z,47.48
2023-03-19T09:38:06.210Z,45.00
2023-03-19T09:40:48.914Z,40.75
2023-03-19T09:43:32.107Z,45.78
2023-03-19T09:46:04.789Z,41.92
2023-03-19T09:48:42.170Z,50.03
2023-03-19T09:51:15.449Z,39.23
2023-03-19T09:54:01.450Z,39.80
2023-03-19T09:59:04.319Z,46.92
2023-03-19T10:01:38.308Z,47.65
2023-03-19T10:04:38.957Z,42.70
2023-03-19T10:07:44.209Z,45.12
2023-03-19T10:10:24.269Z,50.30
2023-03-19T10:13:17.736Z,42.10
2023-03-19T10:15:50.194Z,39.65
2023-03-19T10:18:26.868Z,40.00
2023-03-19T10:21:03.717Z,41.28
2023-03-19T10:23:36.986Z,42.83
2023-03-19T10:26:10.241Z,44.53
2023-03-19T10:28:43.327Z,41.15
2023-03-19T10:31:28.832Z,39.95
2023-03-19T10:34:33.643Z,40.85
2023-03-19T10:37:06.878Z,47.13
2023-03-19T10:39:39.925Z,42.15
2023-03-19T10:42:29.334Z,43.73
2023-03-19T10:45:06.756Z,53.78
2023-03-19T10:47:42.351Z,44.15
2023-03-19T10:50:21.534Z,49.87
2023-03-19T10:52:57.441Z,43.02
2023-03-19T10:55:30.460Z,45.58
2023-03-19T10:58:06.265Z,45.75
2023-03-19T11:00:37.929Z,47.13
2023-03-19T11:03:11.141Z,49.85
2023-03-19T11:05:42.054Z,49.38
2023-03-19T11:08:32.852Z,43.13
2023-03-19T11:10:51.914Z,45.12
2023-03-19T11:13:28.184Z,51.45
2023-03-19T11:16:01.378Z,46.30
2023-03-19T11:18:35.140Z,51.18
2023-03-19T11:21:11.391Z,87.12
2023-03-19T11:23:45.691Z,69.47
2023-03-19T11:26:19.162Z,105.37
2023-03-19T11:28:57.330Z,81.53
2023-03-19T11:31:47.951Z,55.43
2023-03-19T11:34:46.464Z,403.90
2023-03-19T11:37:35.209Z,232.03
2023-03-19T11:40:40.665Z,235.78
2023-03-19T11:43:29.824Z,136.88
2023-03-19T11:46:09.407Z,127.62
2023-03-19T11:49:08.075Z,97.90
2023-03-19T11:51:58.700Z,98.65
2023-03-19T11:55:05.580Z,81.75
2023-03-19T11:57:51.536Z,60.80
2023-03-19T12:00:46.507Z,75.08
2023-03-19T12:03:27.130Z,67.70
2023-03-19T12:06:00.402Z,55.67
2023-03-19T12:08:56.172Z,51.30
2023-03-19T12:11:32.193Z,48.73
2023-03-19T12:14:17.298Z,52.40
2023-03-19T12:17:25.773Z,52.10
2023-03-19T12:20:05.213Z,54.70
2023-03-19T12:23:06.094Z,51.42
2023-03-19T12:25:48.028Z,54.30
2023-03-19T12:28:32.478Z,55.80
2023-03-19T12:31:09.699Z,56.30
2023-03-19T12:33:52.800Z,57.53
2023-03-19T12:36:20.084Z,51.15
2023-03-19T12:38:53.782Z,52.90
2023-03-19T12:41:32.201Z,52.15
2023-03-19T12:44:07.063Z,51.80
2023-03-19T12:46:40.746Z,58.17
2023-03-19T12:49:34.621Z,55.92
2023-03-19T12:55:55.167Z,50.03
2023-03-19T12:57:53.963Z,43.40
2023-03-19T13:00:41.458Z,55.67
2023-03-19T13:03:43.344Z,48.98
2023-03-19T13:06:16.587Z,51.50
2023-03-19T13:08:59.413Z,51.50
2023-03-19T13:11:55.809Z,52.35
2023-03-19T13:14:56.485Z,50.35
2023-03-19T13:20:55.825Z,50.35
2023-03-19T13:23:31.667Z,47.40
2023-03-19T13:26:05.627Z,52.15
2023-03-19T13:28:39.305Z,48.85
2023-03-19T13:31:17.012Z,53.02
2023-03-19T13:34:08.114Z,47.65
2023-03-19T13:36:43.245Z,50.58
2023-03-19T13:39:19.846Z,48.90
2023-03-19T13:42:01.882Z,44.48
2023-03-19T13:44:35.385Z,52.65
2023-03-19T13:47:14.649Z,48.90
2023-03-19T13:49:50.022Z,50.40
2023-03-19T13:52:24.394Z,51.42
2023-03-19T13:55:00.145Z,46.63
2023-03-19T13:57:44.640Z,46.90
2023-03-19T14:00:46.060Z,46.45
2023-03-19T14:03:25.735Z,46.20
2023-03-19T14:06:00.105Z,49.63
2023-03-19T14:08:33.776Z,48.23
2023-03-19T14:11:06.806Z,50.28
2023-03-19T14:13:45.855Z,47.75
2023-03-19T14:16:28.301Z,47.38
2023-03-19T14:19:05.983Z,49.63
2023-03-19T14:21:47.089Z,44.53
2023-03-19T14:24:56.813Z,48.68
2023-03-19T14:27:25.461Z,47.05
2023-03-19T14:30:00.173Z,49.73
2023-03-19T14:32:32.843Z,44.20
2023-03-19T14:35:06.264Z,43.98
2023-03-19T14:37:56.350Z,51.63
2023-03-19T14:40:54.498Z,47.62
2023-03-19T14:43:58.962Z,52.20
2023-03-19T14:46:35.293Z,48.58
2023-03-19T14:49:39.478Z,52.25
2023-03-19T14:52:28.718Z,47.60
2023-03-19T14:55:12.703Z,49.20
2023-03-19T14:57:44.877Z,49.58
2023-03-19T15:00:21.180Z,46.30
2023-03-19T15:03:01.780Z,52.35
2023-03-19T15:05:35.922Z,60.28
2023-03-19T15:08:09.634Z,60.12
2023-03-19T15:11:12.392Z,56.40
2023-03-19T15:14:02.028Z,56.13
2023-03-19T15:17:02.880Z,68.02
2023-03-19T15:19:34.923Z,69.67
2023-03-19T15:22:14.465Z,60.73
2023-03-19T15:24:45.908Z,62.83
2023-03-19T15:27:40.446Z,65.90
2023-03-19T15:30:27.414Z,49.27
2023-03-19T15:33:11.958Z,51.75
2023-03-19T15:35:37.517Z,54.20
2023-03-19T15:38:14.353Z,55.23
2023-03-19T15:40:45.667Z,51.77
2023-03-19T15:43:17.301Z,53.55
2023-03-19T15:45:54.254Z,53.30
2023-03-19T15:48:30.658Z,56.25
2023-03-19T15:51:04.228Z,54.80
2023-03-19T15:53:37.545Z,57.85
2023-03-19T15:56:09.767Z,56.13
2023-03-19T15:58:43.285Z,54.40
2023-03-19T16:01:16.199Z,53.65
2023-03-19T16:03:55.411Z,52.80
2023-03-19T16:06:36.053Z,51.48
2023-03-19T16:09:18.598Z,53.02
2023-03-19T16:11:49.903Z,50.70
2023-03-19T16:14:41.775Z,44.38
2023-03-19T16:17:18.372Z,46.48
2023-03-19T16:22:34.033Z,48.02
2023-03-19T16:25:06.287Z,44.00
2023-03-19T16:27:39.655Z,50.63
2023-03-19T16:30:34.366Z,45.55
2023-03-19T16:33:06.757Z,49.67
2023-03-19T16:35:38.794Z,49.93
2023-03-19T16:38:26.785Z,47.53
2023-03-19T16:41:21.413Z,49.53
2023-03-19T16:43:55.182Z,47.83
2023-03-19T16:46:27.855Z,49.53
2023-03-19T16:48:59.714Z,45.12
2023-03-19T16:51:30.911Z,42.90
2023-03-19T16:54:04.610Z,49.88
2023-03-19T16:56:38.474Z,45.88
2023-03-19T16:59:08.903Z,43.95
2023-03-19T17:01:40.299Z,46.73
2023-03-19T17:04:13.884Z,47.75
2023-03-19T17:06:44.898Z,46.40
2023-03-19T17:09:26.062Z,47.60
2023-03-19T17:11:58.037Z,49.45
2023-03-19T17:14:29.318Z,48.87
2023-03-19T17:17:02.615Z,45.55
2023-03-19T17:19:39.751Z,44.77
2023-03-19T17:22:14.642Z,51.63
2023-03-19T17:24:46.018Z,49.35
2023-03-19T17:27:17.850Z,51.98
2023-03-19T17:29:49.116Z,43.38
2023-03-19T17:32:22.468Z,45.52
2023-03-19T17:34:53.514Z,49.23
2023-03-19T17:37:24.531Z,50.63
2023-03-19T17:39:55.949Z,53.17
2023-03-19T17:42:28.005Z,50.75
2023-03-19T17:45:01.791Z,50.90
2023-03-19T17:47:32.925Z,49.33
2023-03-19T17:50:04.288Z,49.40
2023-03-19T17:52:39.784Z,51.23
2023-03-19T17:55:27.822Z,48.35
2023-03-19T17:57:59.347Z,47.88
2023-03-19T18:00:30.482Z,46.58
2023-03-19T18:03:01.871Z,45.60
2023-03-19T18:05:32.966Z,41.35
2023-03-19T18:08:03.906Z,45.78
2023-03-19T18:10:36.470Z,53.13
2023-03-19T18:13:08.039Z,43.00
2023-03-19T18:15:40.417Z,42.73
2023-03-19T18:18:13.990Z,44.75
2023-03-19T18:20:46.543Z,44.05
2023-03-19T18:23:18.511Z,45.15
2023-03-19T18:25:49.453Z,44.98
2023-03-19T18:28:20.592Z,42.85
2023-03-19T18:30:51.630Z,41.92
2023-03-19T18:33:24.982Z,44.98
2023-03-19T18:35:56.519Z,43.35
2023-03-19T18:38:30.924Z,43.13
2023-03-19T18:41:02.365Z,43.65
2023-03-19T18:43:33.593Z,41.85
2023-03-19T18:46:04.539Z,39.08
2023-03-19T18:48:35.769Z,48.20
2023-03-19T18:51:07.852Z,41.15
2023-03-19T18:53:38.748Z,44.40
2023-03-19T18:56:24.482Z,42.73
2023-03-19T18:58:56.428Z,48.58
2023-03-19T19:01:28.386Z,41.15
2023-03-19T19:03:59.341Z,41.80
2023-03-19T19:06:46.367Z,41.70
2023-03-19T19:09:05.934Z,40.30
2023-03-19T19:11:37.808Z,44.42
2023-03-19T19:14:11.159Z,43.80
2023-03-19T19:16:42.746Z,43.87
2023-03-19T19:19:25.572Z,42.80
2023-03-19T19:21:57.196Z,41.92
2023-03-19T19:24:28.554Z,38.17
2023-03-19T19:27:01.684Z,42.55
2023-03-19T19:29:33.518Z,46.15
2023-03-19T19:32:05.632Z,44.20
2023-03-19T19:34:39.730Z,37.85
2023-03-19T19:37:13.502Z,44.58
2023-03-19T19:39:44.684Z,39.53
2023-03-19T19:42:18.184Z,41.53
2023-03-19T19:44:51.746Z,41.48
2023-03-19T19:47:22.757Z,39.70
2023-03-19T19:49:54.123Z,39.25
2023-03-19T19:52:29.334Z,40.43
2023-03-19T19:55:00.877Z,38.33
2023-03-19T19:57:32.478Z,38.05
2023-03-19T20:00:06.079Z,39.40
2023-03-19T20:02:37.042Z,41.05
2023-03-19T20:05:08.402Z,37.20
2023-03-19T20:07:39.560Z,34.43
2023-03-19T20:10:11.325Z,36.40
2023-03-19T20:12:44.771Z,34.98
2023-03-19T20:15:21.160Z,31.85
2023-03-19T20:17:53.045Z,33.20
2023-03-19T20:20:24.994Z,33.45
2023-03-19T20:22:57.362Z,33.65
2023-03-19T20:25:31.124Z,32.40
2023-03-19T20:28:03.874Z,34.60
2023-03-19T20:30:38.252Z,31.30
2023-03-19T20:33:10.574Z,30.27
2023-03-19T20:35:41.977Z,29.27
2023-03-19T20:38:15.359Z,33.95
2023-03-19T20:40:51.698Z,36.75
2023-03-19T20:43:34.064Z,34.67
2023-03-19T20:46:07.958Z,32.98
2023-03-19T20:48:39.521Z,35.58
2023-03-19T20:51:11.935Z,32.75
2023-03-19T20:53:43.520Z,35.28
2023-03-19T20:56:17.319Z,33.85
2023-03-19T20:58:48.976Z,36.35
2023-03-19T21:01:20.971Z,33.50
2023-03-19T21:03:51.913Z,36.17
2023-03-19T21:06:28.424Z,35.25
2023-03-19T21:09:01.526Z,33.35
2023-03-19T21:11:43.356Z,33.88
2023-03-19T21:14:18.071Z,34.40
2023-03-19T21:16:49.034Z,37.95
2023-03-19T21:19:20.544Z,37.95
2023-03-19T21:21:51.774Z,38.53
2023-03-19T21:24:24.284Z,46.88
2023-03-19T21:26:56.870Z,37.83
2023-03-19T21:29:30.192Z,37.55
2023-03-19T21:32:01.809Z,37.28
2023-03-19T21:34:33.090Z,36.70
2023-03-19T21:37:03.981Z,37.48
2023-03-19T21:39:34.898Z,33.95
2023-03-19T21:42:09.626Z,38.65
2023-03-19T21:44:41.981Z,37.13
2023-03-19T21:47:24.141Z,35.78
2023-03-19T21:49:55.998Z,34.35
2023-03-19T21:52:26.942Z,33.33
2023-03-19T21:54:58.522Z,34.13
2023-03-19T21:57:30.157Z,36.10
2023-03-19T22:00:01.136Z,32.48
2023-03-19T22:02:34.713Z,35.80
2023-03-19T22:05:07.348Z,35.80
2023-03-19T22:07:39.166Z,36.10
2023-03-19T22:10:10.678Z,35.75
2023-03-19T22:12:42.636Z,37.70
2023-03-19T22:15:22.974Z,38.85
2023-03-19T22:17:53.889Z,39.10
2023-03-19T22:20:27.479Z,42.10
2023-03-19T22:22:59.573Z,38.90
2023-03-19T22:25:33.330Z,39.78
2023-03-19T22:28:06.848Z,42.00
2023-03-19T22:30:40.452Z,35.40
2023-03-19T22:33:25.057Z,42.62
2023-03-19T22:35:56.381Z,37.50
2023-03-19T22:38:27.584Z,37.03
2023-03-19T22:40:59.298Z,38.65
2023-03-19T22:43:36.213Z,38.50
2023-03-19T22:46:15.428Z,42.27
2023-03-19T22:48:50.162Z,41.10
2023-03-19T22:51:24.871Z,37.45
2023-03-19T22:53:56.742Z,40.80
2023-03-19T22:56:28.200Z,38.98
2023-03-19T22:58:59.349Z,39.18
2023-03-19T23:01:32.901Z,40.67
2023-03-19T23:04:06.495Z,41.85
2023-03-19T23:06:37.728Z,41.50
2023-03-19T23:09:09.298Z,43.52
2023-03-19T23:11:40.655Z,37.73
2023-03-19T23:14:26.100Z,36.95
2023-03-19T23:16:47.013Z,43.68
2023-03-19T23:19:20.705Z,42.98
2023-03-19T23:21:52.164Z,37.50
2023-03-19T23:24:23.622Z,36.10
2023-03-19T23:26:57.615Z,48.73
2023-03-19T23:29:31.453Z,39.73
2023-03-19T23:32:02.914Z,40.10
2023-03-19T23:34:42.335Z,44.90
2023-03-19T23:37:07.119Z,41.18
2023-03-19T23:39:39.749Z,40.90
2023-03-19T23:42:11.975Z,40.05
2023-03-19T23:44:44.820Z,45.55
2023-03-19T23:47:16.650Z,49.15
2023-03-19T23:49:47.616Z,54.20
2023-03-19T23:52:18.647Z,49.03
2023-03-19T23:54:49.870Z,51.25
2023-03-19T23:57:22.297Z,52.48
2023-03-19T23:59:54.518Z,55.48
